Time;durP1;ratioP1;P1;durP2;ratioP2;P2;SDS_P1;SDS_P2;PMS_P1;PMS_P2;Temp;Humidity;BMP_temperature;BMP_pressure;BME280_temperature;BME280_humidity;BME280_pressure;Samples;Min_cycle;Max_cycle;Signal;HPM_P1;HPM_P2
2022/04/22 00:01:56;;;;;;;12.15;5.18;;;10.20;99.90;;;;;;6186329;23;20024;-75
2022/04/22 00:04:41;;;;;;;13.18;5.32;;;10.20;99.90;;;;;;6190547;23;20404;-74
2022/04/22 00:07:07;;;;;;;12.05;5.68;;;10.20;99.90;;;;;;6186062;23;20025;-75
2022/04/22 00:09:33;;;;;;;11.10;5.13;;;10.20;99.90;;;;;;6181193;23;20021;-74
2022/04/22 00:11:58;;;;;;;15.57;6.30;;;10.20;99.90;;;;;;6180840;23;20342;-75
2022/04/22 00:14:27;;;;;;;12.07;6.82;;;10.20;99.90;;;;;;6205889;23;20025;-75
2022/04/22 00:16:53;;;;;;;10.50;5.00;;;10.30;99.90;;;;;;6180778;23;20151;-75
2022/04/22 00:19:21;;;;;;;11.52;6.30;;;10.30;99.90;;;;;;6206157;23;20128;-75
2022/04/22 00:21:47;;;;;;;12.40;6.40;;;10.40;99.90;;;;;;6156339;23;20532;-76
2022/04/22 00:24:15;;;;;;;12.32;6.05;;;10.40;99.90;;;;;;6206345;23;20398;-75
2022/04/22 00:26:42;;;;;;;13.48;5.97;;;10.40;99.90;;;;;;6181274;23;20116;-75
2022/04/22 00:29:07;;;;;;;14.43;6.63;;;10.40;99.90;;;;;;6181128;23;20068;-76
2022/04/22 00:31:34;;;;;;;11.35;5.40;;;10.40;99.90;;;;;;6231651;23;20028;-76
2022/04/22 00:34:07;;;;;;;15.50;7.15;;;10.40;99.90;;;;;;6205226;23;20036;-76
2022/04/22 00:36:35;;;;;;;12.75;6.30;;;10.40;99.90;;;;;;6181726;23;20052;-76
2022/04/22 00:39:05;;;;;;;15.07;6.10;;;10.40;99.90;;;;;;6206097;23;20551;-76
2022/04/22 00:41:32;;;;;;;12.20;6.30;;;10.40;99.90;;;;;;6206800;23;20031;-76
2022/04/22 00:43:57;;;;;;;15.25;6.28;;;10.30;99.90;;;;;;6181435;23;20159;-77
2022/04/22 00:46:23;;;;;;;14.25;6.10;;;10.30;99.90;;;;;;6181411;23;20056;-76
2022/04/22 00:48:49;;;;;;;14.18;5.88;;;10.30;99.90;;;;;;6181174;23;20119;-74
2022/04/22 00:51:16;;;;;;;17.02;6.90;;;10.20;99.90;;;;;;6231698;23;20061;-75
2022/04/22 00:53:49;;;;;;;19.10;8.45;;;10.20;99.90;;;;;;6181615;23;20029;-75
2022/04/22 00:56:17;;;;;;;13.80;7.47;;;10.20;99.90;;;;;;6157826;23;20393;-76
2022/04/22 00:58:47;;;;;;;11.55;6.28;;;10.20;99.90;;;;;;6181147;23;20527;-75
2022/04/22 01:01:13;;;;;;;15.82;6.63;;;10.20;99.90;;;;;;6156484;23;20032;-74
2022/04/22 01:09:46;;;;;;;18.40;6.68;;;10.20;99.90;;;;;;6180879;23;20059;-77
2022/04/22 01:12:07;;;;;;;15.38;6.30;;;10.10;99.90;;;;;;6183099;23;20021;-75
2022/04/22 01:14:34;;;;;;;19.35;7.35;;;10.10;99.90;;;;;;6206628;23;20146;-75
2022/04/22 01:17:03;;;;;;;13.32;5.55;;;10.20;99.90;;;;;;6180758;23;20028;-75
2022/04/22 01:19:30;;;;;;;15.20;6.57;;;10.20;99.90;;;;;;6180820;23;20052;-75
2022/04/22 01:21:55;;;;;;;16.40;6.07;;;10.20;99.90;;;;;;6181251;23;20335;-75
2022/04/22 01:24:21;;;;;;;17.40;5.63;;;10.20;99.90;;;;;;6182088;23;20060;-75
2022/04/22 01:26:50;;;;;;;15.48;6.55;;;10.20;99.90;;;;;;6183092;23;20063;-77
2022/04/22 01:29:16;;;;;;;15.23;6.72;;;10.20;99.90;;;;;;6184846;23;20032;-76
2022/04/22 01:31:45;;;;;;;16.23;7.10;;;10.20;99.90;;;;;;6184686;23;20323;-76
2022/04/22 01:34:11;;;;;;;17.38;6.22;;;10.20;99.90;;;;;;6233546;23;20158;-76
2022/04/22 01:36:40;;;;;;;14.90;6.88;;;10.20;99.90;;;;;;6184854;23;20025;-75
2022/04/22 01:39:08;;;;;;;13.77;6.90;;;10.20;99.90;;;;;;6184884;23;20032;-75
2022/04/22 01:41:37;;;;;;;18.02;8.02;;;10.20;99.90;;;;;;6207609;23;20021;-76
2022/04/22 01:44:04;;;;;;;14.77;7.72;;;10.20;99.90;;;;;;6184625;23;20056;-76
2022/04/22 01:46:30;;;;;;;24.52;8.60;;;10.10;99.90;;;;;;6207223;23;20119;-75
2022/04/22 01:48:57;;;;;;;16.05;7.45;;;10.10;99.90;;;;;;6233094;23;20029;-75
2022/04/22 01:51:28;;;;;;;16.85;6.93;;;10.10;99.90;;;;;;6231505;23;20021;-75
2022/04/22 01:53:57;;;;;;;16.00;6.43;;;10.10;99.90;;;;;;6182848;23;20457;-77
2022/04/22 01:56:26;;;;;;;10.98;6.22;;;10.10;99.90;;;;;;6232482;23;20052;-76
2022/04/22 01:58:52;;;;;;;18.88;6.32;;;10.00;99.90;;;;;;6183260;23;20020;-76
2022/04/22 02:01:18;;;;;;;13.50;6.47;;;10.00;99.90;;;;;;6182908;23;20025;-76
2022/04/22 02:03:44;;;;;;;13.68;6.15;;;9.90;99.90;;;;;;6184522;23;20159;-75
2022/04/22 02:06:11;;;;;;;15.30;6.28;;;9.90;99.90;;;;;;6206927;23;20020;-76
2022/04/22 02:08:36;;;;;;;14.43;6.78;;;9.90;99.90;;;;;;6212341;22;20360;-76
2022/04/22 02:11:21;;;;;;;11.25;5.63;;;9.80;99.90;;;;;;6214233;23;20106;-76
2022/04/22 02:13:47;;;;;;;12.90;5.55;;;9.80;99.90;;;;;;6214547;23;20448;-77
2022/04/22 02:16:13;;;;;;;12.73;5.00;;;9.70;99.90;;;;;;6187221;23;20103;-75
2022/04/22 02:18:39;;;;;;;14.45;5.47;;;9.70;99.90;;;;;;6214048;23;20025;-75
2022/04/22 02:21:06;;;;;;;11.65;4.18;;;9.70;99.90;;;;;;6187387;23;20415;-75
2022/04/22 02:23:35;;;;;;;10.57;4.68;;;9.70;99.90;;;;;;6213724;23;20075;-74
2022/04/22 02:26:03;;;;;;;14.82;4.85;;;9.70;99.90;;;;;;6187740;23;20406;-74
2022/04/22 02:28:33;;;;;;;12.70;5.22;;;9.70;99.90;;;;;;6187676;23;20352;-78
2022/04/22 02:31:13;;;;;;;11.35;5.22;;;9.60;99.90;;;;;;6212986;23;20472;-76
2022/04/22 02:33:41;;;;;;;10.00;5.28;;;9.70;99.90;;;;;;6214594;23;20352;-74
2022/04/22 02:36:08;;;;;;;12.18;5.65;;;9.70;99.90;;;;;;6211677;23;20155;-75
2022/04/22 02:38:35;;;;;;;15.90;5.43;;;9.60;99.90;;;;;;6187352;23;20021;-75
2022/04/22 02:46:33;;;;;;;13.15;6.15;;;9.60;99.90;;;;;;6207991;23;20020;-74
2022/04/22 02:49:02;;;;;;;11.98;4.63;;;9.60;99.90;;;;;;6211448;23;20499;-75
2022/04/22 02:51:36;;;;;;;17.10;5.38;;;9.60;99.90;;;;;;6187384;23;20021;-74
2022/04/22 02:54:02;;;;;;;13.13;4.68;;;9.50;99.90;;;;;;6187295;23;20043;-74
2022/04/22 02:56:31;;;;;;;13.43;5.63;;;9.50;99.90;;;;;;6211901;23;20464;-76
2022/04/22 02:59:08;;;;;;;12.27;4.90;;;9.50;99.90;;;;;;6214017;23;20024;-75
2022/04/22 03:01:38;;;;;;;12.55;4.35;;;9.50;99.90;;;;;;6211463;23;20456;-75
2022/04/22 03:04:07;;;;;;;12.02;4.28;;;9.50;99.90;;;;;;6214241;23;20031;-74
2022/04/22 03:06:34;;;;;;;9.85;4.20;;;9.40;99.90;;;;;;6187354;23;20017;-75
2022/04/22 03:09:00;;;;;;;13.52;3.72;;;9.40;99.90;;;;;;6193466;23;20024;-74
2022/04/22 03:11:26;;;;;;;12.30;4.03;;;9.40;99.90;;;;;;6195466;23;20103;-76
2022/04/22 03:13:57;;;;;;;13.73;4.35;;;9.40;99.90;;;;;;6237753;23;20342;-74
2022/04/22 03:16:27;;;;;;;14.43;4.82;;;9.40;99.90;;;;;;6186338;23;20107;-76
2022/04/22 03:18:53;;;;;;;11.25;4.18;;;9.30;99.90;;;;;;6211304;23;20032;-76
2022/04/22 03:21:19;;;;;;;10.35;3.67;;;9.30;99.90;;;;;;6211117;23;20090;-75
2022/04/22 03:23:45;;;;;;;12.63;3.78;;;9.30;99.90;;;;;;6186793;23;20031;-75
2022/04/22 03:26:14;;;;;;;8.75;3.30;;;9.20;99.90;;;;;;6211616;23;20147;-75
2022/04/22 03:28:40;;;;;;;10.65;4.15;;;9.20;99.90;;;;;;6211049;23;20028;-75
2022/04/22 03:31:06;;;;;;;7.50;3.78;;;9.20;99.90;;;;;;6237334;23;20024;-76
2022/04/22 03:33:32;;;;;;;12.85;3.45;;;9.20;99.90;;;;;;6186160;23;20498;-75
2022/04/22 03:35:59;;;;;;;9.48;3.80;;;9.10;99.90;;;;;;6213372;23;20464;-75
2022/04/22 03:38:30;;;;;;;15.20;3.42;;;9.10;99.90;;;;;;6236694;23;20070;-75
2022/04/22 03:41:12;;;;;;;10.73;3.67;;;9.10;99.90;;;;;;6210610;23;20391;-76
2022/04/22 03:43:40;;;;;;;11.15;3.13;;;9.10;99.90;;;;;;6212689;23;20064;-77
2022/04/22 03:46:06;;;;;;;10.45;4.05;;;9.00;99.90;;;;;;6236205;23;20028;-76
2022/04/22 03:48:33;;;;;;;10.02;3.33;;;9.00;99.90;;;;;;6211602;23;20028;-77
2022/04/22 03:50:59;;;;;;;6.38;3.10;;;9.00;99.90;;;;;;6236775;23;20021;-74
2022/04/22 03:53:39;;;;;;;7.10;3.38;;;8.90;99.90;;;;;;6186896;23;20035;-75
2022/04/22 03:58:49;;;;;;;10.93;3.70;;;8.90;99.90;;;;;;6233399;23;20035;-75
2022/04/22 04:01:21;;;;;;;9.55;3.90;;;8.80;99.90;;;;;;6185995;23;20099;-77
2022/04/22 04:03:47;;;;;;;9.90;2.95;;;8.80;99.90;;;;;;6185754;23;20074;-77
2022/04/22 04:06:13;;;;;;;11.43;3.53;;;8.80;99.90;;;;;;6186301;23;20460;-75
2022/04/22 04:15:57;;;;;;;11.15;3.47;;;8.80;99.90;;;;;;6186029;22;20499;-77
2022/04/22 04:17:05;;;;;;;9.57;3.45;;;8.60;99.90;;;;;;6186605;23;20024;-76
2022/04/22 04:25:06;;;;;;;7.40;3.20;;;8.50;99.90;;;;;;6232838;23;20088;-77
2022/04/22 04:27:41;;;;;;;;;;;8.50;99.90;;;;;;6235489;23;20024;-76
2022/04/22 04:30:08;;;;;;;6.88;3.28;;;8.50;99.90;;;;;;6212885;23;19922;-76
2022/04/22 04:32:36;;;;;;;9.45;3.45;;;8.40;99.90;;;;;;6210048;23;20502;-76
2022/04/22 04:35:04;;;;;;;8.60;3.20;;;8.40;99.90;;;;;;6210869;23;20024;-75
2022/04/22 04:37:30;;;;;;;8.65;3.08;;;8.40;99.90;;;;;;6236500;23;20021;-76
2022/04/22 04:39:56;;;;;;;9.70;4.03;;;8.40;99.90;;;;;;6186260;23;20052;-75
2022/04/22 04:42:26;;;;;;;8.68;3.20;;;8.40;99.90;;;;;;6211475;23;20035;-75
2022/04/22 04:44:52;;;;;;;8.48;2.95;;;8.30;99.90;;;;;;6161403;23;20024;-75
2022/04/22 04:47:18;;;;;;;8.38;3.15;;;8.30;99.90;;;;;;6213158;23;20032;-77
2022/04/22 04:49:47;;;;;;;8.43;3.20;;;8.40;99.90;;;;;;6213475;23;20027;-76
2022/04/22 04:52:13;;;;;;;8.73;3.05;;;8.40;99.90;;;;;;6212982;23;20020;-75
2022/04/22 04:54:44;;;;;;;7.10;3.00;;;8.40;99.90;;;;;;6161480;23;20452;-76
2022/04/22 04:57:24;;;;;;;10.07;2.92;;;8.40;99.90;;;;;;6210135;23;20427;-76
2022/04/22 04:59:56;;;;;;;6.28;2.90;;;8.50;99.90;;;;;;6238770;23;20063;-76
2022/04/22 05:02:25;;;;;;;8.38;3.08;;;8.50;99.90;;;;;;6187780;23;20052;-76
2022/04/22 05:04:51;;;;;;;5.50;2.50;;;8.50;99.90;;;;;;6215437;23;20036;-76
2022/04/22 05:07:18;;;;;;;6.97;3.30;;;8.50;99.90;;;;;;6214950;23;20033;-75
2022/04/22 05:09:43;;;;;;;11.10;3.67;;;8.60;99.90;;;;;;6187837;23;20052;-76
2022/04/22 05:12:12;;;;;;;8.85;2.53;;;8.70;99.90;;;;;;6188069;23;20021;-75
2022/04/22 05:14:57;;;;;;;7.40;2.33;;;8.80;99.90;;;;;;6192822;23;20024;-76
2022/04/22 05:17:28;;;;;;;7.25;2.35;;;8.90;99.90;;;;;;6212081;23;20028;-75
2022/04/22 05:19:56;;;;;;;9.35;3.17;;;9.00;99.90;;;;;;6187967;23;20024;-76
2022/04/22 05:22:23;;;;;;;10.07;2.83;;;9.10;99.90;;;;;;6212922;23;20468;-74
2022/04/22 05:24:59;;;;;;;4.80;2.15;;;9.10;99.90;;;;;;6211353;23;20086;-75
2022/04/22 05:27:31;;;;;;;7.15;2.97;;;9.30;99.90;;;;;;6163517;23;20508;-76
2022/04/22 05:32:52;;;;;;;7.43;2.58;;;9.50;99.90;;;;;;6186650;23;20023;-75
2022/04/22 05:35:20;;;;;;;9.10;2.33;;;9.60;99.90;;;;;;6188084;23;20075;-76
2022/04/22 05:37:56;;;;;;;6.18;2.35;;;9.70;99.90;;;;;;6187375;23;20095;-74
2022/04/22 05:40:36;;;;;;;6.60;2.78;;;9.80;99.90;;;;;;6212425;23;20095;-75
2022/04/22 05:43:08;;;;;;;10.05;2.67;;;9.90;99.90;;;;;;6210934;23;20029;-75
2022/04/22 05:45:36;;;;;;;10.25;2.83;;;10.00;99.90;;;;;;6212589;23;20756;-76
2022/04/22 05:48:16;;;;;;;5.97;2.10;;;10.10;99.90;;;;;;6238023;23;20028;-76
2022/04/22 05:50:42;;;;;;;8.13;2.03;;;10.20;99.90;;;;;;6210469;23;20103;-75
2022/04/22 05:53:08;;;;;;;5.68;1.92;;;10.30;99.90;;;;;;6237892;23;20580;-75
2022/04/22 05:55:43;;;;;;;;;;;10.30;99.90;;;;;;6214210;23;20077;-76
2022/04/22 05:58:13;;;;;;;6.53;2.15;;;10.40;99.90;;;;;;6187518;23;20380;-75
2022/04/22 06:00:41;;;;;;;8.90;2.97;;;10.50;99.90;;;;;;6236545;23;20031;-75
2022/04/22 06:03:08;;;;;;;6.55;2.25;;;10.60;99.90;;;;;;6211732;23;20095;-75
2022/04/22 06:05:38;;;;;;;6.90;2.50;;;10.70;99.90;;;;;;6187644;23;20028;-75
2022/04/22 06:11:14;;;;;;;11.02;2.55;;;10.90;99.90;;;;;;6187398;23;20040;-75
2022/04/22 06:13:47;;;;;;;7.13;2.60;;;11.00;99.90;;;;;;6237859;23;20071;-75
2022/04/22 06:16:15;;;;;;;8.07;2.20;;;11.10;99.90;;;;;;6211237;23;20337;-76
2022/04/22 06:18:46;;;;;;;8.90;2.25;;;11.20;99.90;;;;;;6214317;23;20021;-74
2022/04/22 06:21:14;;;;;;;11.40;2.88;;;11.30;99.90;;;;;;6187215;23;20024;-76
2022/04/22 06:23:41;;;;;;;9.25;2.75;;;11.30;99.90;;;;;;6211867;23;20020;-75
2022/04/22 06:26:11;;;;;;;9.07;2.70;;;11.40;99.90;;;;;;6188169;23;20340;-75
2022/04/22 06:28:47;;;;;;;8.13;2.53;;;11.50;99.90;;;;;;6187628;23;20095;-77
2022/04/22 06:31:13;;;;;;;5.93;2.53;;;11.60;99.90;;;;;;6214478;23;20115;-75
2022/04/22 06:33:40;;;;;;;6.25;3.03;;;11.60;99.90;;;;;;6212506;23;20035;-77
2022/04/22 06:36:12;;;;;;;7.20;2.30;;;11.80;99.90;;;;;;6213870;23;20087;-74
2022/04/22 06:38:40;;;;;;;9.75;2.47;;;11.90;99.90;;;;;;6235794;23;20025;-75
2022/04/22 06:46:38;;;;;;;8.57;2.60;;;12.20;99.90;;;;;;6186883;23;20033;-76
2022/04/22 06:49:08;;;;;;;7.20;2.17;;;12.30;99.90;;;;;;6162649;23;20020;-75
2022/04/22 06:51:49;;;;;;;7.80;2.10;;;12.30;99.90;;;;;;6201975;23;20035;-76
2022/04/22 06:54:20;;;;;;;9.52;2.50;;;12.40;99.90;;;;;;6155672;23;20075;-78
2022/04/22 06:56:49;;;;;;;8.30;2.63;;;12.50;99.90;;;;;;6205775;23;20021;-76
2022/04/22 06:59:19;;;;;;;8.07;2.75;;;12.60;99.90;;;;;;6180797;23;20096;-77
2022/04/22 07:01:46;;;;;;;8.48;2.35;;;12.60;99.90;;;;;;6180529;23;20803;-75
2022/04/22 07:04:13;;;;;;;10.70;2.42;;;12.70;99.90;;;;;;6154432;23;20024;-76
2022/04/22 07:06:42;;;;;;;11.45;2.78;;;12.70;99.90;;;;;;6179982;23;20465;-75
2022/04/22 07:09:12;;;;;;;13.02;2.45;;;12.80;99.90;;;;;;6180548;23;20041;-76
2022/04/22 07:11:41;;;;;;;8.73;2.58;;;12.90;99.90;;;;;;6154640;23;20856;-76
2022/04/22 07:14:08;;;;;;;10.25;3.03;;;13.00;99.90;;;;;;6180620;23;20025;-76
2022/04/22 07:16:41;;;;;;;6.75;2.65;;;13.00;99.90;;;;;;6205494;23;20021;-76
2022/04/22 07:19:07;;;;;;;12.20;2.80;;;13.10;99.90;;;;;;6155628;23;20029;-76
2022/04/22 07:21:33;;;;;;;15.48;3.13;;;13.20;99.90;;;;;;6155374;23;20421;-77
2022/04/22 07:24:01;;;;;;;6.20;2.70;;;13.20;99.90;;;;;;6186959;23;20060;-75
2022/04/22 07:26:29;;;;;;;14.43;2.88;;;13.40;99.90;;;;;;6186637;23;20100;-76
2022/04/22 07:28:59;;;;;;;5.55;2.60;;;13.40;99.90;;;;;;6213494;23;20029;-76
2022/04/22 07:31:29;;;;;;;10.52;2.53;;;13.50;99.90;;;;;;6186464;23;20021;-76
2022/04/22 07:33:56;;;;;;;10.20;2.70;;;13.60;99.90;;;;;;6212698;23;20028;-77
2022/04/22 07:36:25;;;;;;;10.23;2.50;;;13.60;99.90;;;;;;6214217;23;20028;-76
2022/04/22 07:38:51;;;;;;;8.07;2.50;;;13.70;99.90;;;;;;6168755;23;20021;-77
2022/04/22 07:41:20;;;;;;;11.25;2.13;;;13.70;99.90;;;;;;6191828;23;20031;-77
2022/04/22 07:46:48;;;;;;;10.57;2.92;;;13.80;99.90;;;;;;6185271;23;20027;-75
2022/04/22 07:49:15;;;;;;;10.23;2.58;;;13.90;99.90;;;;;;6186378;23;20440;-75
2022/04/22 07:51:45;;;;;;;12.02;2.67;;;14.00;99.90;;;;;;6186246;23;20024;-75
2022/04/22 07:54:12;;;;;;;11.00;2.60;;;14.10;99.90;;;;;;6185090;23;20021;-77
2022/04/22 07:56:42;;;;;;;20.88;3.78;;;14.20;99.90;;;;;;6213135;23;20514;-76
2022/04/22 07:59:10;;;;;;;12.35;2.40;;;14.40;99.90;;;;;;6161633;23;20055;-76
2022/04/22 08:01:36;;;;;;;13.93;2.40;;;14.50;99.90;;;;;;6161821;23;20456;-75
2022/04/22 08:04:03;;;;;;;13.02;2.50;;;14.60;99.90;;;;;;6211022;23;20132;-76
2022/04/22 08:06:30;;;;;;;6.72;2.70;;;14.70;99.90;;;;;;6162399;23;20075;-75
2022/04/22 08:08:57;;;;;;;11.07;2.72;;;14.70;99.90;;;;;;6186193;23;20021;-77
2022/04/22 08:11:23;;;;;;;11.82;2.78;;;14.80;99.90;;;;;;6213288;23;20031;-76
2022/04/22 08:13:49;;;;;;;13.48;2.90;;;14.80;99.90;;;;;;6237814;23;20071;-77
2022/04/22 08:16:20;;;;;;;10.55;2.80;;;14.80;99.90;;;;;;6186472;23;20020;-75
2022/04/22 08:19:08;;;;;;;15.98;2.97;;;15.00;99.90;;;;;;6126042;23;20033;-76
2022/04/22 08:21:34;;;;;;;7.55;2.95;;;15.10;99.90;;;;;;6149773;23;20021;-77
2022/04/22 08:24:04;;;;;;;12.02;2.53;;;15.30;99.90;;;;;;6101348;23;20034;-75
2022/04/22 08:26:32;;;;;;;8.98;2.70;;;15.40;99.90;;;;;;6100979;23;20021;-76
2022/04/22 08:29:02;;;;;;;10.32;3.03;;;15.50;99.90;;;;;;6101656;23;20404;-76
2022/04/22 08:31:29;;;;;;;6.40;2.50;;;15.70;99.90;;;;;;6125576;23;20509;-75
2022/04/22 08:33:58;;;;;;;7.90;2.63;;;15.70;99.90;;;;;;6149905;23;20105;-76
2022/04/22 08:36:26;;;;;;;16.02;3.25;;;15.90;99.90;;;;;;6101620;23;20144;-77
2022/04/22 08:39:05;;;;;;;8.05;3.28;;;15.80;99.30;;;;;;6124966;23;20030;-75
2022/04/22 08:41:40;;;;;;;8.10;2.58;;;15.80;99.00;;;;;;6127460;23;20505;-75
2022/04/22 08:44:13;;;;;;;7.80;2.15;;;15.70;99.10;;;;;;6125036;23;20092;-75
2022/04/22 08:52:14;;;;;;;13.75;3.42;;;16.10;98.80;;;;;;6125207;23;20022;-77
2022/04/22 08:54:48;;;;;;;10.68;2.80;;;16.30;98.40;;;;;;6125066;23;20691;-75
2022/04/22 08:57:33;;;;;;;11.23;2.83;;;16.30;98.10;;;;;;6130245;23;20037;-77
2022/04/22 09:00:03;;;;;;;12.35;2.72;;;16.50;98.30;;;;;;6125263;23;20053;-76
2022/04/22 09:02:29;;;;;;;7.93;2.40;;;16.70;98.30;;;;;;6125095;23;20341;-78
2022/04/22 09:04:55;;;;;;;7.28;3.20;;;16.80;98.20;;;;;;6101022;23;20025;-79
2022/04/22 09:07:28;;;;;;;11.48;2.95;;;16.90;98.00;;;;;;6150267;23;20032;-76
2022/04/22 09:10:07;;;;;;;10.50;2.85;;;16.90;97.40;;;;;;6199820;23;20028;-77
2022/04/22 09:12:35;;;;;;;7.53;2.70;;;17.00;97.30;;;;;;6185745;23;20453;-78
2022/04/22 09:15:06;;;;;;;10.88;2.75;;;17.10;97.40;;;;;;6212792;23;20032;-76
2022/04/22 09:17:36;;;;;;;7.13;2.83;;;17.30;96.90;;;;;;6185952;23;20021;-77
2022/04/22 09:20:15;;;;;;;6.78;3.00;;;17.20;96.40;;;;;;6211352;23;20024;-76
2022/04/22 09:22:44;;;;;;;8.30;2.20;;;17.20;96.40;;;;;;6186549;23;20352;-75
2022/04/22 09:25:23;;;;;;;6.90;2.58;;;17.40;96.60;;;;;;6211153;23;20468;-78
2022/04/22 09:27:50;;;;;;;8.48;2.90;;;17.60;95.70;;;;;;6186189;23;20016;-79
2022/04/22 09:30:16;;;;;;;8.73;2.92;;;17.60;96.20;;;;;;6209306;23;20059;-77
2022/04/22 09:32:45;;;;;;;7.32;2.47;;;17.70;95.70;;;;;;6185720;23;20021;-77
2022/04/22 09:35:25;;;;;;;6.38;2.30;;;17.60;95.60;;;;;;6186084;23;20024;-76
2022/04/22 09:43:50;;;;;;;9.25;2.40;;;17.90;94.80;;;;;;6185956;23;20460;-76
2022/04/22 09:46:32;;;;;;;9.18;3.25;;;17.80;94.30;;;;;;6213031;23;20095;-77
2022/04/22 09:49:02;;;;;;;10.93;2.72;;;17.80;93.10;;;;;;6187077;23;20028;-75
2022/04/22 09:51:30;;;;;;;8.95;2.15;;;18.00;93.90;;;;;;6214513;23;20131;-75
2022/04/22 09:54:06;;;;;;;8.32;2.65;;;18.10;93.70;;;;;;6161672;23;20024;-76
2022/04/22 09:56:33;;;;;;;7.82;2.80;;;18.30;93.80;;;;;;6187137;23;20115;-77
2022/04/22 09:59:24;;;;;;;11.32;3.28;;;18.40;94.50;;;;;;6163554;23;20027;-78
2022/04/22 10:01:51;;;;;;;12.25;3.03;;;18.40;94.10;;;;;;6187822;23;20025;-76
2022/04/22 10:04:28;;;;;;;12.75;3.10;;;18.60;94.30;;;;;;6187209;23;20470;-75
2022/04/22 10:06:56;;;;;;;13.05;3.80;;;18.80;93.90;;;;;;6187729;23;20104;-79
2022/04/22 10:09:23;;;;;;;16.30;3.20;;;18.70;93.60;;;;;;6187325;23;20028;-78
2022/04/22 10:11:55;;;;;;;10.45;3.00;;;18.60;93.60;;;;;;6212193;23;20452;-78
2022/04/22 10:14:35;;;;;;;12.10;3.30;;;18.70;93.60;;;;;;6212274;23;20036;-79
2022/04/22 10:17:05;;;;;;;17.45;4.18;;;18.80;92.80;;;;;;6187976;23;20023;-77
2022/04/22 10:19:34;;;;;;;10.75;3.03;;;18.80;93.20;;;;;;6163227;23;20063;-78
2022/04/22 10:22:01;;;;;;;11.85;3.17;;;18.80;93.20;;;;;;6238272;23;20025;-77
2022/04/22 10:24:31;;;;;;;10.93;3.33;;;18.70;92.90;;;;;;6237833;23;20261;-77
2022/04/22 10:26:59;;;;;;;15.27;4.60;;;18.60;92.80;;;;;;6186983;23;20020;-78
2022/04/22 10:29:26;;;;;;;15.00;3.85;;;18.70;93.10;;;;;;6212237;23;20035;-77
2022/04/22 10:32:09;;;;;;;13.85;3.75;;;18.80;93.10;;;;;;6271710;22;20031;-76
2022/04/22 10:34:39;;;;;;;11.98;3.45;;;18.80;92.90;;;;;;6271069;22;20023;-77
2022/04/22 10:37:18;;;;;;;14.27;3.30;;;18.80;92.50;;;;;;6220833;22;20106;-78
2022/04/22 10:39:51;;;;;;;12.95;3.78;;;18.90;92.60;;;;;;6223494;22;20020;-77
2022/04/22 10:42:17;;;;;;;15.38;3.53;;;19.00;92.20;;;;;;6246314;22;20193;-76
2022/04/22 10:47:45;;;;;;;16.52;3.40;;;19.00;92.50;;;;;;6224821;22;20383;-77
2022/04/22 10:50:33;;;;;;;10.73;3.38;;;19.10;92.30;;;;;;6245975;22;20065;-79
2022/04/22 10:53:19;;;;;;;11.25;3.67;;;19.30;92.20;;;;;;6272084;22;20028;-77
2022/04/22 10:55:48;;;;;;;8.23;3.45;;;19.40;92.40;;;;;;6220571;22;20023;-76
2022/04/22 10:58:13;;;;;;;11.23;3.10;;;19.50;92.00;;;;;;6219473;22;20028;-76
2022/04/22 11:00:44;;;;;;;10.90;3.30;;;19.50;91.80;;;;;;6246321;22;20027;-76
2022/04/22 11:03:14;;;;;;;17.50;4.35;;;19.60;91.70;;;;;;6191509;23;20468;-77
2022/04/22 11:05:48;;;;;;;13.63;4.53;;;19.70;91.50;;;;;;6211691;23;20082;-76
2022/04/22 11:08:30;;;;;;;13.10;4.10;;;19.70;91.10;;;;;;6237731;23;20119;-78
2022/04/22 11:11:03;;;;;;;10.80;3.53;;;19.80;91.00;;;;;;6213938;23;20052;-77
2022/04/22 11:13:38;;;;;;;12.18;3.67;;;19.90;91.20;;;;;;6238224;23;20034;-77
2022/04/22 11:16:22;;;;;;;9.68;3.70;;;20.00;91.10;;;;;;6213908;23;20020;-78
2022/04/22 11:19:17;;;;;;;12.18;3.83;;;20.00;90.70;;;;;;6162181;23;20103;-77
2022/04/22 11:21:43;;;;;;;;;;;20.10;90.30;;;;;;6202354;23;20024;-78
2022/04/22 11:24:36;;;;;;;15.32;4.13;;;20.20;90.40;;;;;;6211859;23;19923;-77
2022/04/22 11:27:22;;;;;;;9.65;3.83;;;20.20;90.20;;;;;;6187387;23;20063;-76
2022/04/22 11:29:49;;;;;;;9.45;3.47;;;20.20;90.40;;;;;;6162052;23;20047;-75
2022/04/22 11:32:48;;;;;;;10.07;3.70;;;20.30;90.30;;;;;;6162354;23;20126;-75
2022/04/22 11:35:18;;;;;;;12.85;4.07;;;20.40;90.10;;;;;;6187285;23;20035;-78
2022/04/22 11:37:44;;;;;;;9.32;3.75;;;20.60;89.50;;;;;;6213854;23;20063;-78
2022/04/22 11:40:18;;;;;;;11.73;3.45;;;20.80;88.60;;;;;;6186418;23;20794;-77
2022/04/22 11:42:44;;;;;;;10.93;3.67;;;20.90;88.20;;;;;;6213933;23;20039;-77
2022/04/22 11:45:15;;;;;;;12.18;4.50;;;20.90;87.90;;;;;;6187128;23;20020;-78
2022/04/22 11:47:43;;;;;;;15.05;5.25;;;20.90;88.10;;;;;;6213291;23;20021;-79
2022/04/22 11:50:21;;;;;;;13.73;4.20;;;20.90;87.60;;;;;;6213707;23;20024;-80
2022/04/22 11:52:56;;;;;;;13.05;4.38;;;21.20;87.80;;;;;;6212375;23;20043;-79
2022/04/22 11:55:22;;;;;;;14.65;4.45;;;21.10;87.90;;;;;;6187860;23;20024;-78
2022/04/22 11:57:49;;;;;;;16.38;5.13;;;21.10;87.90;;;;;;6186802;23;20023;-77
2022/04/22 12:05:52;;;;;;;14.95;4.57;;;21.80;83.90;;;;;;6210259;23;20029;-78
2022/04/22 12:08:19;;;;;;;20.45;4.47;;;21.80;82.70;;;;;;6211201;23;20062;-77
2022/04/22 12:10:46;;;;;;;13.07;5.25;;;22.10;83.30;;;;;;6212513;23;20515;-78
2022/04/22 12:13:16;;;;;;;10.68;4.53;;;22.30;80.60;;;;;;6211291;23;20538;-77
2022/04/22 12:15:48;;;;;;;13.38;4.68;;;22.30;79.20;;;;;;6187984;23;20021;-79
2022/04/22 12:18:36;;;;;;;11.38;4.43;;;22.40;76.30;;;;;;6186698;23;20031;-79
2022/04/22 12:21:04;;;;;;;14.27;4.28;;;22.40;75.80;;;;;;6187187;23;20052;-78
2022/04/22 12:23:38;;;;;;;14.82;4.68;;;22.30;76.80;;;;;;6211339;23;20836;-78
2022/04/22 12:26:06;;;;;;;12.90;4.50;;;22.40;76.60;;;;;;6211102;23;20468;-79
2022/04/22 12:28:35;;;;;;;16.23;4.38;;;22.90;75.60;;;;;;6237549;23;20449;-77
2022/04/22 12:31:01;;;;;;;13.10;3.83;;;22.70;74.00;;;;;;6212247;23;20473;-78
2022/04/22 12:33:33;;;;;;;13.52;4.13;;;23.00;74.70;;;;;;6186717;23;20028;-79
2022/04/22 12:36:10;;;;;;;13.43;5.28;;;22.90;72.20;;;;;;6186828;23;20031;-77
2022/04/22 12:38:37;;;;;;;12.27;4.18;;;23.20;72.00;;;;;;6186534;23;20487;-80
2022/04/22 12:41:17;;;;;;;14.85;4.20;;;23.00;70.40;;;;;;6186871;23;20020;-76
2022/04/22 12:43:48;;;;;;;12.07;4.22;;;23.70;71.30;;;;;;6187130;23;20063;-80
2022/04/22 12:52:23;;;;;;;13.43;4.88;;;23.90;67.70;;;;;;6209345;23;20059;-77
2022/04/22 12:54:50;;;;;;;14.73;4.93;;;23.90;67.30;;;;;;6188836;23;20032;-77
2022/04/22 12:57:19;;;;;;;16.30;4.72;;;23.90;66.80;;;;;;6243197;23;20074;-77
2022/04/22 13:00:15;;;;;;;14.68;5.07;;;24.20;65.10;;;;;;6190896;23;20051;-76
2022/04/22 13:02:45;;;;;;;17.30;4.55;;;24.50;61.30;;;;;;6186193;23;20021;-78
2022/04/22 13:05:22;;;;;;;13.75;4.85;;;24.80;60.20;;;;;;6212373;23;20031;-78
2022/04/22 13:07:50;;;;;;;11.55;5.25;;;25.40;60.10;;;;;;6234963;23;20016;-77
2022/04/22 13:10:20;;;;;;;15.45;4.70;;;25.50;57.60;;;;;;6185406;23;20021;-78
2022/04/22 13:12:52;;;;;;;13.27;4.47;;;25.40;57.30;;;;;;6211219;23;20099;-79
2022/04/22 13:15:34;;;;;;;8.25;4.85;;;25.90;56.40;;;;;;6149998;23;20469;-77
2022/04/22 13:18:00;;;;;;;11.10;4.47;;;26.40;55.00;;;;;;6150143;23;20036;-77
2022/04/22 13:20:30;;;;;;;14.38;4.95;;;26.80;53.40;;;;;;6126367;23;20040;-79
2022/04/22 13:22:57;;;;;;;12.00;4.70;;;27.20;51.90;;;;;;6152087;23;20025;-78
2022/04/22 13:25:23;;;;;;;13.20;4.50;;;27.50;51.80;;;;;;6151963;23;20430;-78
2022/04/22 13:27:58;;;;;;;19.40;4.70;;;27.70;50.60;;;;;;6103254;23;20021;-78
2022/04/22 13:30:27;;;;;;;15.02;4.90;;;28.20;50.60;;;;;;6127353;23;20029;-79
2022/04/22 13:32:54;;;;;;;16.40;4.65;;;28.40;48.40;;;;;;6152440;23;20409;-79
2022/04/22 13:35:23;;;;;;;16.90;5.57;;;28.40;48.70;;;;;;6079015;23;20025;-78
2022/04/22 13:37:58;;;;;;;14.32;5.15;;;28.70;47.20;;;;;;6151822;23;20026;-78
2022/04/22 13:40:27;;;;;;;20.33;5.15;;;28.60;46.90;;;;;;6127728;23;20480;-78
2022/04/22 13:42:59;;;;;;;16.05;4.90;;;28.70;46.10;;;;;;6151981;23;20022;-78
2022/04/22 13:53:50;;;;;;;13.93;4.70;;;29.20;43.70;;;;;;6157726;23;20025;-78
2022/04/22 13:56:17;;;;;;;12.88;4.72;;;29.40;43.80;;;;;;6181728;23;20472;-78
2022/04/22 13:58:43;;;;;;;28.55;6.50;;;29.40;43.00;;;;;;6181600;23;20110;-78
2022/04/22 14:01:13;;;;;;;13.82;5.18;;;29.50;42.50;;;;;;6180214;23;20342;-79
2022/04/22 14:03:40;;;;;;;16.40;5.03;;;29.70;42.00;;;;;;6180974;23;20524;-79
2022/04/22 14:06:06;;;;;;;18.05;4.95;;;30.10;41.40;;;;;;6207227;23;20056;-78
2022/04/22 14:08:35;;;;;;;11.25;5.40;;;30.30;41.40;;;;;;6192970;23;20492;-79
2022/04/22 14:11:08;;;;;;;9.55;4.82;;;30.30;41.20;;;;;;6187617;23;20475;-79
2022/04/22 14:13:34;;;;;;;19.63;5.43;;;30.40;40.70;;;;;;6184696;23;20634;-77